createdAt,value
2023-05-12T00:00:44.644Z,22.45
2023-05-12T00:01:44.662Z,22.45
2023-05-12T00:02:44.782Z,22.44
2023-05-12T00:03:44.867Z,22.45
2023-05-12T00:04:44.688Z,22.44
2023-05-12T00:05:44.661Z,22.44
2023-05-12T00:06:44.651Z,22.44
2023-05-12T00:07:44.646Z,22.44
2023-05-12T00:08:44.624Z,22.44
2023-05-12T00:09:44.654Z,22.43
2023-05-12T00:10:44.739Z,22.43
2023-05-12T00:11:44.637Z,22.43
2023-05-12T00:12:44.628Z,22.43
2023-05-12T00:13:44.669Z,22.43
2023-05-12T00:14:44.651Z,22.43
2023-05-12T00:15:44.663Z,22.43
2023-05-12T00:16:44.726Z,22.43
2023-05-12T00:17:44.688Z,22.43
2023-05-12T00:18:44.682Z,22.42
2023-05-12T00:19:44.640Z,22.43
2023-05-12T00:20:44.641Z,22.43
2023-05-12T00:21:44.641Z,22.41
2023-05-12T00:22:44.636Z,22.42
2023-05-12T00:23:44.646Z,22.42
2023-05-12T00:24:44.652Z,22.42
2023-05-12T00:25:44.660Z,22.42
2023-05-12T00:26:44.661Z,22.41
2023-05-12T00:27:44.675Z,22.42
2023-05-12T00:28:44.675Z,22.42
2023-05-12T00:29:44.687Z,22.42
2023-05-12T00:30:44.699Z,22.40
2023-05-12T00:31:44.705Z,22.41
2023-05-12T00:32:44.768Z,22.41
2023-05-12T00:33:44.713Z,22.41
2023-05-12T00:34:44.734Z,22.41
2023-05-12T00:35:44.972Z,22.41
2023-05-12T00:36:44.739Z,22.40
2023-05-12T00:37:44.748Z,22.40
2023-05-12T00:38:44.732Z,22.40
2023-05-12T00:39:44.714Z,22.40
2023-05-12T00:40:44.724Z,22.40
2023-05-12T00:41:44.719Z,22.41
2023-05-12T00:42:44.765Z,22.40
2023-05-12T00:43:44.721Z,22.40
2023-05-12T00:44:44.708Z,22.40
2023-05-12T00:45:44.751Z,22.39
2023-05-12T00:46:44.692Z,22.40
2023-05-12T00:47:44.758Z,22.39
2023-05-12T00:48:44.682Z,22.39
2023-05-12T00:49:44.677Z,22.39
2023-05-12T00:50:44.674Z,22.39
2023-05-12T00:51:44.680Z,22.39
2023-05-12T00:52:44.672Z,22.39
2023-05-12T00:53:49.770Z,22.39
2023-05-12T00:54:45.642Z,22.38
2023-05-12T00:55:44.613Z,22.39
2023-05-12T00:56:44.574Z,22.38
2023-05-12T00:57:44.531Z,22.39
2023-05-12T00:58:44.503Z,22.38
2023-05-12T00:59:44.459Z,22.39
2023-05-12T01:00:44.434Z,22.39
2023-05-12T01:01:44.422Z,22.38
2023-05-12T01:02:44.431Z,22.38
2023-05-12T01:03:44.344Z,22.37
2023-05-12T01:04:44.299Z,22.37
2023-05-12T01:05:44.249Z,22.37
2023-05-12T01:06:44.217Z,22.37
2023-05-12T01:07:44.173Z,22.37
2023-05-12T01:08:44.188Z,22.38
2023-05-12T01:09:44.165Z,22.37
2023-05-12T01:10:44.168Z,22.37
2023-05-12T01:11:44.136Z,22.37
2023-05-12T01:12:44.152Z,22.36
2023-05-12T01:13:44.149Z,22.38
2023-05-12T01:14:44.166Z,22.37
2023-05-12T01:15:44.124Z,22.37
2023-05-12T01:16:44.147Z,22.36
2023-05-12T01:17:44.193Z,22.36
2023-05-12T01:18:44.234Z,22.36
2023-05-12T01:19:44.098Z,22.36
2023-05-12T01:20:44.108Z,22.36
2023-05-12T01:21:44.095Z,22.36
2023-05-12T01:22:44.097Z,22.36
2023-05-12T01:23:44.092Z,22.36
2023-05-12T01:24:44.113Z,22.36
2023-05-12T01:25:44.102Z,22.36
2023-05-12T01:26:44.103Z,22.36
2023-05-12T01:27:44.105Z,22.35
2023-05-12T01:28:44.102Z,22.35
2023-05-12T01:29:44.094Z,22.35
2023-05-12T01:30:44.174Z,22.35
2023-05-12T01:31:44.141Z,22.34
2023-05-12T01:32:44.115Z,22.35
2023-05-12T01:33:44.085Z,22.35
2023-05-12T01:34:44.087Z,22.35
2023-05-12T01:35:44.096Z,22.35
2023-05-12T01:36:44.099Z,22.34
2023-05-12T01:37:44.101Z,22.34
2023-05-12T01:38:44.084Z,22.35
2023-05-12T01:39:44.124Z,22.34
2023-05-12T01:40:44.075Z,22.35
2023-05-12T01:41:44.086Z,22.35
2023-05-12T01:42:44.097Z,22.34
2023-05-12T01:43:44.090Z,22.34
2023-05-12T01:44:44.069Z,22.34
2023-05-12T01:45:44.067Z,22.34
2023-05-12T01:46:44.094Z,22.34
2023-05-12T01:47:44.151Z,22.34
2023-05-12T01:48:44.088Z,22.33
2023-05-12T01:49:44.087Z,22.33
2023-05-12T01:50:44.053Z,22.33
2023-05-12T01:51:44.068Z,22.33
2023-05-12T01:52:44.047Z,22.33
2023-05-12T01:53:44.053Z,22.33
2023-05-12T01:54:44.051Z,22.33
2023-05-12T01:55:44.053Z,22.33
2023-05-12T01:56:44.038Z,22.33
2023-05-12T01:57:44.058Z,22.33
2023-05-12T01:58:44.102Z,22.33
2023-05-12T01:59:44.093Z,22.32
2023-05-12T02:00:44.069Z,22.32
2023-05-12T02:01:44.135Z,22.32
2023-05-12T02:02:44.159Z,22.32
2023-05-12T02:03:44.221Z,22.32
2023-05-12T02:04:44.062Z,22.32
2023-05-12T02:05:44.072Z,22.32
2023-05-12T02:06:44.062Z,22.31
2023-05-12T02:07:44.063Z,22.32
2023-05-12T02:08:44.074Z,22.32
2023-05-12T02:09:44.083Z,22.31
2023-05-12T02:10:44.058Z,22.31
2023-05-12T02:11:44.122Z,22.31
2023-05-12T02:12:44.057Z,22.31
2023-05-12T02:13:44.048Z,22.31
2023-05-12T02:14:44.061Z,22.31
2023-05-12T02:15:44.049Z,22.31
2023-05-12T02:16:44.248Z,22.30
2023-05-12T02:17:44.107Z,22.30
2023-05-12T02:18:44.192Z,22.30
2023-05-12T02:19:44.053Z,22.31
2023-05-12T02:20:44.073Z,22.30
2023-05-12T02:21:44.056Z,22.30
2023-05-12T02:22:44.060Z,22.30
2023-05-12T02:23:44.043Z,22.30
2023-05-12T02:24:44.051Z,22.30
2023-05-12T02:25:44.058Z,22.30
2023-05-12T02:26:44.068Z,22.30
2023-05-12T02:27:44.068Z,22.30
2023-05-12T02:28:44.071Z,22.29
2023-05-12T02:29:44.070Z,22.30
2023-05-12T02:30:44.064Z,22.30
2023-05-12T02:31:44.125Z,22.29
2023-05-12T02:32:44.113Z,22.30
2023-05-12T02:33:44.146Z,22.30
2023-05-12T02:34:44.080Z,22.30
2023-05-12T02:35:44.092Z,22.29
2023-05-12T02:36:44.100Z,22.30
2023-05-12T02:37:44.096Z,22.29
2023-05-12T02:38:44.107Z,22.30
2023-05-12T02:39:44.105Z,22.30
2023-05-12T02:40:44.113Z,22.29
2023-05-12T02:41:44.122Z,22.29
2023-05-12T02:42:44.132Z,22.29
2023-05-12T02:43:44.167Z,22.29
2023-05-12T02:44:44.146Z,22.28
2023-05-12T02:45:44.265Z,22.28
2023-05-12T02:46:44.150Z,22.29
2023-05-12T02:47:44.203Z,22.28
2023-05-12T02:48:44.168Z,22.28
2023-05-12T02:49:44.151Z,22.28
2023-05-12T02:50:44.177Z,22.28
2023-05-12T02:51:44.173Z,22.28
2023-05-12T02:52:44.177Z,22.28
2023-05-12T02:53:44.182Z,22.28
2023-05-12T02:54:44.172Z,22.28
2023-05-12T02:55:44.173Z,22.28
2023-05-12T02:56:44.191Z,22.27
2023-05-12T02:57:44.190Z,22.27
2023-05-12T02:58:44.217Z,22.28
2023-05-12T02:59:44.207Z,22.27
2023-05-12T03:00:44.202Z,22.27
2023-05-12T03:01:44.220Z,22.27
2023-05-12T03:02:44.285Z,22.26
2023-05-12T03:03:44.470Z,22.27
2023-05-12T03:04:44.229Z,22.27
2023-05-12T03:05:44.217Z,22.27
2023-05-12T03:06:44.270Z,22.26
2023-05-12T03:07:44.222Z,22.26
2023-05-12T03:08:44.240Z,22.26
2023-05-12T03:09:44.226Z,22.26
2023-05-12T03:10:44.240Z,22.26
2023-05-12T03:11:44.238Z,22.27
2023-05-12T03:12:44.238Z,22.26
2023-05-12T03:13:44.238Z,22.25
2023-05-12T03:14:44.244Z,22.26
2023-05-12T03:15:44.223Z,22.26
2023-05-12T03:16:44.261Z,22.26
2023-05-12T03:17:44.263Z,22.25
2023-05-12T03:18:44.292Z,22.26
2023-05-12T03:19:44.245Z,22.25
2023-05-12T03:20:44.240Z,22.25
2023-05-12T03:21:44.248Z,22.25
2023-05-12T03:22:44.251Z,22.24
2023-05-12T03:23:44.263Z,22.25
2023-05-12T03:24:44.268Z,22.25
2023-05-12T03:25:44.266Z,22.24
2023-05-12T03:26:44.294Z,22.25
2023-05-12T03:27:44.296Z,22.24
2023-05-12T03:28:44.295Z,22.25
2023-05-12T03:29:44.308Z,22.25
2023-05-12T03:30:44.300Z,22.25
2023-05-12T03:31:44.383Z,22.24
2023-05-12T03:32:44.324Z,22.24
2023-05-12T03:33:44.323Z,22.24
2023-05-12T03:34:44.333Z,22.24
2023-05-12T03:35:44.355Z,22.24
2023-05-12T03:36:44.338Z,22.25
2023-05-12T03:37:44.377Z,22.24
2023-05-12T03:38:44.344Z,22.24
2023-05-12T03:39:44.385Z,22.24
2023-05-12T03:40:44.367Z,22.25
2023-05-12T03:41:44.393Z,22.23
2023-05-12T03:42:44.381Z,22.24
2023-05-12T03:43:44.409Z,22.24
2023-05-12T03:44:44.404Z,22.23
2023-05-12T03:45:44.429Z,22.24
2023-05-12T03:46:44.518Z,22.24
2023-05-12T03:47:44.557Z,22.24
2023-05-12T03:48:44.421Z,22.23
2023-05-12T03:49:44.447Z,22.24
2023-05-12T03:50:44.445Z,22.22
2023-05-12T03:51:44.462Z,22.22
2023-05-12T03:52:45.107Z,22.23
2023-05-12T03:53:44.475Z,22.23
2023-05-12T03:54:44.501Z,22.23
2023-05-12T03:55:44.486Z,22.23
2023-05-12T03:56:44.497Z,22.22
2023-05-12T03:57:44.504Z,22.23
2023-05-12T03:58:44.510Z,22.22
2023-05-12T03:59:44.521Z,22.23
2023-05-12T04:00:44.525Z,22.22
2023-05-12T04:01:44.577Z,22.22
2023-05-12T04:02:44.677Z,22.22
2023-05-12T04:03:44.614Z,22.22
2023-05-12T04:04:44.585Z,22.22
2023-05-12T04:05:44.591Z,22.23
2023-05-12T04:06:44.603Z,22.22
2023-05-12T04:07:44.612Z,22.22
2023-05-12T04:08:44.620Z,22.22
2023-05-12T04:09:44.604Z,22.22
2023-05-12T04:10:44.627Z,22.22
2023-05-12T04:11:44.627Z,22.22
2023-05-12T04:12:44.653Z,22.21
2023-05-12T04:13:44.652Z,22.22
2023-05-12T04:14:44.672Z,22.21
2023-05-12T04:15:44.682Z,22.22
2023-05-12T04:16:44.726Z,22.22
2023-05-12T04:17:44.722Z,22.21
2023-05-12T04:18:44.697Z,22.22
2023-05-12T04:19:44.692Z,22.20
2023-05-12T04:20:44.700Z,22.21
2023-05-12T04:21:44.710Z,22.21
2023-05-12T04:22:44.707Z,22.21
2023-05-12T04:23:44.712Z,22.21
2023-05-12T04:24:44.721Z,22.21
2023-05-12T04:25:44.735Z,22.20
2023-05-12T04:26:44.744Z,22.21
2023-05-12T04:27:44.770Z,22.20
2023-05-12T04:28:44.852Z,22.21
2023-05-12T04:29:44.818Z,22.20
2023-05-12T04:30:44.811Z,22.21
2023-05-12T04:31:44.874Z,22.21
2023-05-12T04:32:44.912Z,22.21
2023-05-12T04:33:46.920Z,22.20
2023-05-12T04:34:44.831Z,22.21
2023-05-12T04:35:44.806Z,22.21
2023-05-12T04:36:44.768Z,22.22
2023-05-12T04:37:44.745Z,22.21
2023-05-12T04:38:44.713Z,22.21
2023-05-12T04:39:44.686Z,22.21
2023-05-12T04:40:44.645Z,22.20
2023-05-12T04:41:44.614Z,22.21
2023-05-12T04:42:44.614Z,22.21
2023-05-12T04:44:44.535Z,22.21
2023-05-12T04:45:44.525Z,22.21
2023-05-12T04:46:44.496Z,22.21
2023-05-12T04:47:44.492Z,22.22
2023-05-12T04:48:44.415Z,22.21
2023-05-12T04:49:44.384Z,22.21
2023-05-12T04:50:44.360Z,22.21
2023-05-12T04:51:44.325Z,22.22
2023-05-12T04:52:44.296Z,22.21
2023-05-12T04:53:44.263Z,22.21
2023-05-12T04:54:44.251Z,22.22
2023-05-12T04:55:44.198Z,22.22
2023-05-12T04:56:44.179Z,22.22
2023-05-12T04:57:44.152Z,22.21
2023-05-12T04:58:44.097Z,22.21
2023-05-12T04:59:44.059Z,22.21
2023-05-12T05:00:44.042Z,22.22
2023-05-12T05:01:44.193Z,22.22
2023-05-12T05:02:44.009Z,22.22
2023-05-12T05:03:44.128Z,22.23
2023-05-12T05:04:43.882Z,22.23
2023-05-12T05:05:43.857Z,22.22
2023-05-12T05:06:43.815Z,22.23
2023-05-12T05:07:43.786Z,22.23
2023-05-12T05:08:43.736Z,22.23
2023-05-12T05:09:43.716Z,22.23
2023-05-12T05:10:43.666Z,22.23
2023-05-12T05:11:43.657Z,22.23
2023-05-12T05:12:43.600Z,22.23
2023-05-12T05:13:43.583Z,22.23
2023-05-12T05:14:43.540Z,22.23
2023-05-12T05:15:43.590Z,22.22
2023-05-12T05:16:43.486Z,22.23
2023-05-12T05:17:43.557Z,22.23
2023-05-12T05:18:43.438Z,22.23
2023-05-12T05:19:54.891Z,22.22
2023-05-12T05:20:45.610Z,22.16
2023-05-12T05:21:44.339Z,22.11
2023-05-12T05:22:43.308Z,22.07
2023-05-12T05:23:43.292Z,22.00
2023-05-12T05:24:43.267Z,21.98
2023-05-12T05:25:43.242Z,21.97
2023-05-12T05:26:43.215Z,21.98
2023-05-12T05:27:43.198Z,21.97
2023-05-12T05:28:43.165Z,22.04
2023-05-12T05:29:43.140Z,22.13
2023-05-12T05:30:44.006Z,22.21
2023-05-12T05:31:43.098Z,22.31
2023-05-12T05:32:43.068Z,22.40
2023-05-12T05:33:44.005Z,22.49
2023-05-12T05:34:43.026Z,22.58
2023-05-12T05:35:42.913Z,22.66
2023-05-12T05:36:42.882Z,22.73
2023-05-12T05:37:42.853Z,22.80
2023-05-12T05:38:42.802Z,22.86
2023-05-12T05:39:42.764Z,22.92
2023-05-12T05:40:53.086Z,22.99
2023-05-12T05:41:43.726Z,23.04
2023-05-12T05:42:42.644Z,23.10
2023-05-12T05:43:42.588Z,23.15
2023-05-12T05:44:42.544Z,23.21
2023-05-12T05:45:42.524Z,23.26
2023-05-12T05:46:42.480Z,23.31
2023-05-12T05:47:42.517Z,23.34
2023-05-12T05:48:42.374Z,23.39
2023-05-12T05:49:42.319Z,23.42
2023-05-12T05:50:42.300Z,23.44
2023-05-12T05:51:42.306Z,23.46
2023-05-12T05:52:42.310Z,23.49
2023-05-12T05:53:42.307Z,23.51
2023-05-12T05:54:42.298Z,23.53
2023-05-12T05:55:42.315Z,23.56
2023-05-12T05:56:42.311Z,23.57
2023-05-12T05:57:42.310Z,23.59
2023-05-12T05:58:42.302Z,23.62
2023-05-12T05:59:42.302Z,23.64
2023-05-12T06:00:42.294Z,23.66
2023-05-12T06:01:42.328Z,23.68
2023-05-12T06:02:42.481Z,23.70
2023-05-12T06:03:42.363Z,23.72
2023-05-12T06:04:42.276Z,23.75
2023-05-12T06:05:42.342Z,23.77
2023-05-12T06:06:42.253Z,23.78
2023-05-12T06:07:42.303Z,23.81
2023-05-12T06:08:42.239Z,23.83
2023-05-12T06:09:42.229Z,23.84
2023-05-12T06:10:42.242Z,23.87
2023-05-12T06:11:42.196Z,23.89
2023-05-12T06:12:42.186Z,23.91
2023-05-12T06:13:42.184Z,23.94
2023-05-12T06:14:42.155Z,23.96
2023-05-12T06:15:42.134Z,23.97
2023-05-12T06:16:42.189Z,23.99
2023-05-12T06:17:42.150Z,24.01
2023-05-12T06:18:42.139Z,24.03
2023-05-12T06:19:42.084Z,24.04
2023-05-12T06:20:42.614Z,24.03
2023-05-12T06:21:42.065Z,24.02
2023-05-12T06:22:42.079Z,23.98
2023-05-12T06:23:42.044Z,23.92
2023-05-12T06:24:42.035Z,23.87
2023-05-12T06:25:42.080Z,23.80
2023-05-12T06:26:42.091Z,23.75
2023-05-12T06:27:42.012Z,23.69
2023-05-12T06:28:42.012Z,23.63
2023-05-12T06:29:42.002Z,23.55
2023-05-12T06:30:42.033Z,23.49
2023-05-12T06:31:42.029Z,23.43
2023-05-12T06:32:42.032Z,23.38
2023-05-12T06:33:41.960Z,23.32
2023-05-12T06:34:42.001Z,23.27
2023-05-12T06:35:41.943Z,23.21
2023-05-12T06:36:41.940Z,23.16
2023-05-12T06:37:41.913Z,23.13
2023-05-12T06:38:41.918Z,23.09
2023-05-12T06:39:41.848Z,23.06
2023-05-12T06:40:41.857Z,23.02
2023-05-12T06:41:41.793Z,22.99
2023-05-12T06:42:41.791Z,22.98
2023-05-12T06:43:41.741Z,22.97
2023-05-12T06:44:42.467Z,22.96
2023-05-12T06:45:41.708Z,22.94
2023-05-12T06:46:41.714Z,22.94
2023-05-12T06:47:41.728Z,22.94
2023-05-12T06:48:41.650Z,22.95
2023-05-12T06:49:41.615Z,22.95
2023-05-12T06:50:41.629Z,22.96
2023-05-12T06:51:41.574Z,22.96
2023-05-12T06:52:41.593Z,22.95
2023-05-12T06:53:41.548Z,22.94
2023-05-12T06:54:41.539Z,22.96
2023-05-12T06:55:41.502Z,22.99
2023-05-12T06:56:41.493Z,23.02
2023-05-12T06:57:41.478Z,23.06
2023-05-12T06:58:41.464Z,23.11
2023-05-12T06:59:41.426Z,23.15
2023-05-12T07:00:41.407Z,23.18
2023-05-12T07:01:41.441Z,23.23
2023-05-12T07:02:41.448Z,23.26
2023-05-12T07:03:41.484Z,23.29
2023-05-12T07:04:41.387Z,23.31
2023-05-12T07:05:41.461Z,23.33
2023-05-12T07:06:41.523Z,23.35
2023-05-12T07:07:41.364Z,23.38
2023-05-12T07:08:41.368Z,23.40
2023-05-12T07:09:41.363Z,23.43
2023-05-12T07:10:41.377Z,23.45
2023-05-12T07:11:41.342Z,23.48
2023-05-12T07:12:41.380Z,23.50
2023-05-12T07:13:41.338Z,23.53
2023-05-12T07:14:41.420Z,23.55
2023-05-12T07:15:41.364Z,23.58
2023-05-12T07:16:41.356Z,23.61
2023-05-12T07:17:41.390Z,23.63
2023-05-12T07:18:41.368Z,23.66
2023-05-12T07:19:41.327Z,23.68
2023-05-12T07:20:41.336Z,23.70
2023-05-12T07:21:41.317Z,23.72
2023-05-12T07:22:41.333Z,23.74
2023-05-12T07:23:41.313Z,23.76
2023-05-12T07:24:42.284Z,23.78
2023-05-12T07:25:41.225Z,23.82
2023-05-12T07:26:41.154Z,23.89
2023-05-12T07:27:41.089Z,23.92
2023-05-12T07:28:41.061Z,23.96
2023-05-12T07:29:40.987Z,24.00
2023-05-12T07:30:41.562Z,24.05
2023-05-12T07:31:40.904Z,24.09
2023-05-12T07:32:40.877Z,24.11
2023-05-12T07:33:40.776Z,24.15
2023-05-12T07:34:40.722Z,24.17
2023-05-12T07:35:40.665Z,24.21
2023-05-12T07:36:40.612Z,24.23
2023-05-12T07:37:40.561Z,24.25
2023-05-12T07:38:41.160Z,24.28
2023-05-12T07:39:40.471Z,24.31
2023-05-12T07:40:40.431Z,24.35
2023-05-12T07:41:40.394Z,24.39
2023-05-12T07:42:40.373Z,24.42
2023-05-12T07:43:40.358Z,24.43
2023-05-12T07:44:40.311Z,24.43
2023-05-12T07:45:40.289Z,24.45
2023-05-12T07:46:40.272Z,24.46
2023-05-12T07:47:40.223Z,24.48
2023-05-12T07:48:40.412Z,24.49
2023-05-12T07:49:40.145Z,24.50
2023-05-12T07:50:40.158Z,24.52
2023-05-12T07:51:40.104Z,24.53
2023-05-12T07:52:40.013Z,24.53
2023-05-12T07:53:40.000Z,24.54
2023-05-12T07:54:40.032Z,24.55
2023-05-12T07:55:39.954Z,24.56
2023-05-12T07:56:39.928Z,24.56
2023-05-12T07:57:39.861Z,24.59
2023-05-12T07:58:39.874Z,24.62
2023-05-12T07:59:39.733Z,24.62
2023-05-12T08:00:39.706Z,24.62
2023-05-12T08:01:39.690Z,24.61
2023-05-12T08:02:39.700Z,24.62
2023-05-12T08:03:39.697Z,24.61
2023-05-12T08:04:39.589Z,24.62
2023-05-12T08:05:39.544Z,24.62
2023-05-12T08:06:39.545Z,24.64
2023-05-12T08:08:39.534Z,24.66
2023-05-12T08:09:39.494Z,24.68
2023-05-12T08:10:39.501Z,24.67
2023-05-12T08:11:39.455Z,24.68
2023-05-12T08:12:39.469Z,24.66
2023-05-12T08:13:39.473Z,24.65
2023-05-12T08:14:39.443Z,24.60
2023-05-12T08:15:39.394Z,24.59
2023-05-12T08:16:39.404Z,24.58
2023-05-12T08:17:39.392Z,24.52
2023-05-12T08:18:39.344Z,24.45
2023-05-12T08:19:39.266Z,24.42
2023-05-12T08:20:39.234Z,24.36
2023-05-12T08:21:39.202Z,24.34
2023-05-12T08:22:39.168Z,24.29
2023-05-12T08:23:39.145Z,24.25
2023-05-12T08:24:39.662Z,24.21
2023-05-12T08:25:39.092Z,24.18
2023-05-12T08:26:39.100Z,24.21
2023-05-12T08:27:39.070Z,24.20
2023-05-12T08:28:39.672Z,24.13
2023-05-12T08:29:39.028Z,24.06
2023-05-12T08:30:38.999Z,23.96
2023-05-12T08:31:39.213Z,23.87
2023-05-12T08:32:39.023Z,23.85
2023-05-12T08:33:39.013Z,23.83
2023-05-12T08:34:38.982Z,23.82
2023-05-12T08:35:38.998Z,23.83
2023-05-12T08:36:39.095Z,23.83
2023-05-12T08:37:38.988Z,23.79
2023-05-12T08:38:39.088Z,23.82
2023-05-12T08:39:38.976Z,23.88
2023-05-12T08:40:38.927Z,23.94
2023-05-12T08:41:38.936Z,24.00
2023-05-12T08:42:39.089Z,24.06
2023-05-12T08:43:38.890Z,24.12
2023-05-12T08:44:38.872Z,24.18
2023-05-12T08:45:38.849Z,24.22
2023-05-12T08:46:38.866Z,24.27
2023-05-12T08:47:38.836Z,24.33
2023-05-12T08:48:38.742Z,24.37
2023-05-12T08:49:38.767Z,24.41
2023-05-12T08:50:38.675Z,24.43
2023-05-12T08:51:38.619Z,24.45
2023-05-12T08:52:38.570Z,24.40
2023-05-12T08:53:38.539Z,24.33
2023-05-12T08:54:48.736Z,24.27
2023-05-12T08:55:39.465Z,24.24
2023-05-12T08:57:39.765Z,24.19
2023-05-12T08:58:41.716Z,24.17
2023-05-12T08:59:38.224Z,24.13
2023-05-12T09:00:38.212Z,24.08
2023-05-12T09:01:38.167Z,24.08
2023-05-12T09:02:51.438Z,24.07
2023-05-12T09:03:39.358Z,24.01
2023-05-12T09:04:38.199Z,23.97
2023-05-12T09:05:38.144Z,23.95
2023-05-12T09:06:38.106Z,23.97
2023-05-12T09:07:38.261Z,23.97
2023-05-12T09:08:38.084Z,23.95
2023-05-12T09:09:38.672Z,23.94
2023-05-12T09:10:38.052Z,23.93
2023-05-12T09:11:38.052Z,23.87
2023-05-12T09:12:38.044Z,23.86
2023-05-12T09:13:38.024Z,23.86
2023-05-12T09:14:38.251Z,23.86
2023-05-12T09:15:38.017Z,23.90
2023-05-12T09:16:38.069Z,23.92
2023-05-12T09:17:38.006Z,23.92
2023-05-12T09:18:38.030Z,23.94
2023-05-12T09:19:37.969Z,23.95
2023-05-12T09:20:37.964Z,23.94
2023-05-12T09:21:37.965Z,23.99
2023-05-12T09:22:37.949Z,24.04
2023-05-12T09:23:38.677Z,24.07
2023-05-12T09:24:37.947Z,24.12
2023-05-12T09:25:37.908Z,24.14
2023-05-12T09:26:37.889Z,24.20
2023-05-12T09:27:37.888Z,24.24
2023-05-12T09:28:37.892Z,24.28
2023-05-12T09:30:37.894Z,24.37
2023-05-12T09:31:37.859Z,24.42
2023-05-12T09:32:37.879Z,24.47
2023-05-12T09:33:37.792Z,24.48
2023-05-12T09:34:37.770Z,24.51
2023-05-12T09:35:38.693Z,24.55
2023-05-12T09:36:37.753Z,24.57
2023-05-12T09:37:37.728Z,24.57
2023-05-12T09:38:37.713Z,24.57
2023-05-12T09:39:37.742Z,24.57
2023-05-12T09:40:38.193Z,24.56
2023-05-12T09:41:37.659Z,24.56
2023-05-12T09:42:37.686Z,24.55
2023-05-12T09:43:38.189Z,24.53
2023-05-12T09:44:37.591Z,24.53
2023-05-12T09:45:37.641Z,24.53
2023-05-12T09:46:37.537Z,24.52
2023-05-12T09:47:37.576Z,24.53
2023-05-12T09:48:37.493Z,24.51
2023-05-12T09:49:37.465Z,24.49
2023-05-12T09:50:46.496Z,24.52
2023-05-12T09:51:38.406Z,24.54
2023-05-12T09:52:37.381Z,24.55
2023-05-12T09:53:37.316Z,24.58
2023-05-12T09:54:37.284Z,24.61
2023-05-12T09:55:37.215Z,24.62
2023-05-12T09:56:37.261Z,24.64
2023-05-12T09:57:37.156Z,24.66
2023-05-12T09:58:37.119Z,24.67
2023-05-12T09:59:37.069Z,24.68
2023-05-12T10:00:58.555Z,24.68
2023-05-12T10:01:37.983Z,24.70
2023-05-12T10:02:36.998Z,24.71
2023-05-12T10:03:36.888Z,24.71
2023-05-12T10:04:36.929Z,24.71
2023-05-12T10:05:36.780Z,24.70
2023-05-12T10:06:36.753Z,24.72
2023-05-12T10:07:36.888Z,24.71
2023-05-12T10:08:36.651Z,24.73
2023-05-12T10:09:36.580Z,24.74
2023-05-12T10:10:36.570Z,24.75
2023-05-12T10:11:36.529Z,24.75
2023-05-12T10:12:36.538Z,24.75
2023-05-12T10:13:36.516Z,24.74
2023-05-12T10:14:36.515Z,24.73
2023-05-12T10:15:36.489Z,24.72
2023-05-12T10:16:36.510Z,24.71
2023-05-12T10:17:37.229Z,24.70
2023-05-12T10:18:37.348Z,24.68
2023-05-12T10:19:36.427Z,24.67
2023-05-12T10:20:36.379Z,24.65
2023-05-12T10:21:37.206Z,24.64
2023-05-12T10:22:36.332Z,24.62
2023-05-12T10:23:37.929Z,24.61
2023-05-12T10:24:36.279Z,24.60
2023-05-12T10:25:36.238Z,24.59
2023-05-12T10:26:36.216Z,24.57
2023-05-12T10:27:36.227Z,24.57
2023-05-12T10:28:36.153Z,24.55
2023-05-12T10:29:36.217Z,24.53
2023-05-12T10:30:36.120Z,24.52
2023-05-12T10:31:36.200Z,24.49
2023-05-12T10:32:36.110Z,24.46
2023-05-12T10:33:36.054Z,24.45
2023-05-12T10:34:36.040Z,24.44
2023-05-12T10:35:36.021Z,24.42
2023-05-12T10:36:35.984Z,24.42
2023-05-12T10:37:35.980Z,24.42
2023-05-12T10:38:35.951Z,24.42
2023-05-12T10:39:35.931Z,24.41
2023-05-12T10:40:35.954Z,24.40
2023-05-12T10:41:35.865Z,24.39
2023-05-12T10:42:35.841Z,24.39
2023-05-12T10:43:35.830Z,24.38
2023-05-12T10:44:35.827Z,24.37
2023-05-12T10:45:35.794Z,24.36
2023-05-12T10:46:35.767Z,24.35
2023-05-12T10:47:36.813Z,24.34
2023-05-12T10:48:36.225Z,24.32
2023-05-12T10:49:35.698Z,24.33
2023-05-12T10:50:35.670Z,24.34
2023-05-12T10:51:35.647Z,24.33
2023-05-12T10:52:35.620Z,24.33
2023-05-12T10:53:47.607Z,24.33
2023-05-12T10:54:36.572Z,24.31
2023-05-12T10:55:35.575Z,24.31
2023-05-12T10:56:35.682Z,24.31
2023-05-12T10:57:35.674Z,24.30
2023-05-12T10:58:35.814Z,24.30
2023-05-12T10:59:35.469Z,24.29
2023-05-12T11:00:35.551Z,24.28
2023-05-12T11:01:35.861Z,24.26
2023-05-12T11:02:37.013Z,24.25
2023-05-12T11:03:36.064Z,24.23
2023-05-12T11:04:35.268Z,24.21
2023-05-12T11:05:35.155Z,24.19
2023-05-12T11:06:35.206Z,24.17
2023-05-12T11:07:35.524Z,24.16
2023-05-12T11:08:35.828Z,24.14
2023-05-12T11:09:34.930Z,24.13
2023-05-12T11:10:35.685Z,24.12
2023-05-12T11:11:35.195Z,24.10
2023-05-12T11:12:34.718Z,24.10
2023-05-12T11:13:34.659Z,24.10
2023-05-12T11:14:34.616Z,24.09
2023-05-12T11:15:34.564Z,24.09
2023-05-12T11:16:34.567Z,24.09
2023-05-12T11:17:34.524Z,24.09
2023-05-12T11:18:34.469Z,24.09
2023-05-12T11:19:34.413Z,24.09
2023-05-12T11:20:35.234Z,24.09
2023-05-12T11:21:34.297Z,24.09
2023-05-12T11:22:34.446Z,24.09
2023-05-12T11:23:34.218Z,24.09
2023-05-12T11:24:34.214Z,24.09
2023-05-12T11:25:34.235Z,24.09
2023-05-12T11:26:34.163Z,24.09
2023-05-12T11:27:34.116Z,24.09
2023-05-12T11:28:34.141Z,24.08
2023-05-12T11:29:34.085Z,24.07
2023-05-12T11:30:34.093Z,24.07
2023-05-12T11:31:34.077Z,24.07
2023-05-12T11:32:34.082Z,24.07
2023-05-12T11:33:34.022Z,24.06
2023-05-12T11:34:34.039Z,24.06
2023-05-12T11:35:33.985Z,24.05
2023-05-12T11:36:33.990Z,24.04
2023-05-12T11:37:33.962Z,24.00
2023-05-12T11:38:33.959Z,24.01
2023-05-12T11:39:33.922Z,24.01
2023-05-12T11:40:33.897Z,24.01
2023-05-12T11:41:33.873Z,24.00
2023-05-12T11:42:33.849Z,24.00
2023-05-12T11:43:33.829Z,24.00
2023-05-12T11:44:33.807Z,24.00
2023-05-12T11:45:33.804Z,24.00
2023-05-12T11:46:33.774Z,23.99
2023-05-12T11:47:33.780Z,23.98
2023-05-12T11:48:33.732Z,23.96
2023-05-12T11:49:33.733Z,23.96
2023-05-12T11:50:33.713Z,23.95
2023-05-12T11:51:33.690Z,23.95
2023-05-12T11:52:33.667Z,23.95
2023-05-12T11:53:33.646Z,23.95
2023-05-12T11:54:33.639Z,23.95
2023-05-12T11:55:33.629Z,23.94
2023-05-12T11:56:33.614Z,23.93
2023-05-12T11:57:33.629Z,23.93
2023-05-12T11:58:35.554Z,23.93
2023-05-12T11:59:33.680Z,23.91
2023-05-12T12:00:33.566Z,23.91
2023-05-12T12:01:33.580Z,23.91
2023-05-12T12:02:33.682Z,23.90
2023-05-12T12:03:33.615Z,23.89
2023-05-12T12:04:33.727Z,23.88
2023-05-12T12:05:33.519Z,23.88
2023-05-12T12:06:33.496Z,23.87
2023-05-12T12:07:33.496Z,23.86
2023-05-12T12:08:33.469Z,23.87
2023-05-12T12:09:33.465Z,23.86
2023-05-12T12:10:33.454Z,23.85
2023-05-12T12:11:33.440Z,23.85
2023-05-12T12:12:33.414Z,23.84
2023-05-12T12:13:33.428Z,23.84
2023-05-12T12:14:33.428Z,23.83
2023-05-12T12:15:33.374Z,23.84
2023-05-12T12:16:33.430Z,23.84
2023-05-12T12:17:33.380Z,23.84
2023-05-12T12:18:33.379Z,23.84
2023-05-12T12:19:33.356Z,23.83
2023-05-12T12:20:33.325Z,23.82
2023-05-12T12:21:33.310Z,23.82
2023-05-12T12:22:33.309Z,23.82
2023-05-12T12:23:40.616Z,23.82
2023-05-12T12:24:34.259Z,23.81
2023-05-12T12:25:33.197Z,23.81
2023-05-12T12:26:33.178Z,23.80
2023-05-12T12:27:33.090Z,23.80
2023-05-12T12:28:33.041Z,23.80
2023-05-12T12:29:32.997Z,23.79
2023-05-12T12:30:32.946Z,23.79
2023-05-12T12:31:32.946Z,23.79
2023-05-12T12:32:32.861Z,23.79
2023-05-12T12:33:32.790Z,23.78
2023-05-12T12:34:32.757Z,23.79
2023-05-12T12:35:32.678Z,23.78
2023-05-12T12:36:32.673Z,23.78
2023-05-12T12:37:32.658Z,23.77
2023-05-12T12:38:32.685Z,23.77
2023-05-12T12:39:32.627Z,23.77
2023-05-12T12:40:32.652Z,23.77
2023-05-12T12:41:32.610Z,23.77
2023-05-12T12:42:32.767Z,23.77
2023-05-12T12:43:32.614Z,23.76
2023-05-12T12:44:32.603Z,23.76
2023-05-12T12:45:32.583Z,23.76
2023-05-12T12:46:32.629Z,23.75
2023-05-12T12:47:32.631Z,23.75
2023-05-12T12:48:32.559Z,23.75
2023-05-12T12:49:32.538Z,23.75
2023-05-12T12:50:32.553Z,23.75
2023-05-12T12:51:44.673Z,23.74
2023-05-12T12:52:33.488Z,23.74
2023-05-12T12:53:32.431Z,23.74
2023-05-12T12:54:32.375Z,23.74
2023-05-12T12:55:32.335Z,23.75
2023-05-12T12:56:32.279Z,23.74